Time;durP1;ratioP1;P1;durP2;ratioP2;P2;SDS_P1;SDS_P2;PMS_P1;PMS_P2;Temp;Humidity;BMP_temperature;BMP_pressure;BME280_temperature;BME280_humidity;BME280_pressure;Samples;Min_cycle;Max_cycle;Signal;HPM_P1;HPM_P2
2021/05/14 00:01:03;;;;;;;1.65;0.90;;;11.30;99.90;;;;;;5061227;28;20032;-80
2021/05/14 00:03:29;;;;;;;1.65;0.90;;;11.20;99.90;;;;;;5055108;28;20064;-80
2021/05/14 00:05:55;;;;;;;2.42;0.88;;;11.00;99.90;;;;;;5055040;28;20055;-80
2021/05/14 00:08:21;;;;;;;1.50;0.90;;;10.80;99.90;;;;;;5055012;28;20035;-79
2021/05/14 00:10:48;;;;;;;1.63;1.15;;;10.70;99.90;;;;;;5054620;28;20390;-80
2021/05/14 00:13:14;;;;;;;4.93;0.90;;;10.70;99.90;;;;;;5056071;28;20037;-80
2021/05/14 00:15:40;;;;;;;2.15;0.70;;;10.40;99.90;;;;;;5061192;28;20039;-79
2021/05/14 00:18:06;;;;;;;2.20;1.00;;;10.30;99.90;;;;;;5054553;28;20037;-79
2021/05/14 00:20:33;;;;;;;1.77;1.00;;;10.10;99.90;;;;;;5054581;28;20417;-80
2021/05/14 00:22:59;;;;;;;1.88;1.15;;;10.10;99.90;;;;;;5066902;28;20036;-80
2021/05/14 00:25:25;;;;;;;1.70;1.10;;;10.00;99.90;;;;;;5051836;28;20062;-80
2021/05/14 00:27:52;;;;;;;1.65;1.10;;;9.90;99.90;;;;;;5056240;28;20025;-80
2021/05/14 00:30:18;;;;;;;1.83;1.13;;;9.90;99.90;;;;;;5060938;28;20417;-79
2021/05/14 00:32:44;;;;;;;2.45;1.30;;;9.80;99.90;;;;;;5064843;28;20059;-80
2021/05/14 00:35:11;;;;;;;1.55;1.20;;;9.70;99.90;;;;;;5061523;28;20386;-80
2021/05/14 00:37:37;;;;;;;2.35;1.20;;;9.60;99.90;;;;;;5065381;28;20025;-79
2021/05/14 00:40:06;;;;;;;3.63;1.05;;;9.60;99.90;;;;;;5054388;28;20028;-80
2021/05/14 00:42:33;;;;;;;5.32;1.08;;;9.60;99.90;;;;;;5061881;28;20041;-81
2021/05/14 00:45:00;;;;;;;3.70;1.00;;;9.60;99.90;;;;;;5054364;28;20497;-81
2021/05/14 00:47:26;;;;;;;3.35;0.90;;;9.50;99.90;;;;;;5054087;28;20033;-80
2021/05/14 00:49:52;;;;;;;1.48;0.80;;;9.30;99.90;;;;;;5053424;28;20032;-80
2021/05/14 00:52:20;;;;;;;3.25;1.33;;;9.10;99.90;;;;;;5053448;28;20048;-79
2021/05/14 00:54:47;;;;;;;2.13;0.93;;;8.90;99.90;;;;;;5054278;28;20052;-80
2021/05/14 00:57:15;;;;;;;1.88;0.90;;;8.80;99.90;;;;;;5054307;28;20033;-81
2021/05/14 00:59:47;;;;;;;1.13;0.80;;;8.70;99.90;;;;;;5053572;28;20037;-80
2021/05/14 01:02:13;;;;;;;;;;;8.70;99.90;;;;;;5054709;28;20363;-81
2021/05/14 01:04:40;;;;;;;1.80;1.10;;;8.60;99.90;;;;;;5053898;28;20305;-81
2021/05/14 01:07:06;;;;;;;1.92;1.17;;;8.40;99.90;;;;;;5054118;28;20025;-82
2021/05/14 01:09:33;;;;;;;3.67;1.25;;;8.40;99.90;;;;;;5054046;28;20029;-82
2021/05/14 01:12:00;;;;;;;2.72;0.98;;;8.40;99.90;;;;;;5059291;28;20051;-81
2021/05/14 01:14:27;;;;;;;1.63;0.95;;;8.30;99.90;;;;;;5063600;28;20037;-80
2021/05/14 01:16:53;;;;;;;2.10;1.13;;;8.40;99.90;;;;;;5059240;28;20041;-81
2021/05/14 01:19:20;;;;;;;3.50;1.52;;;8.50;99.90;;;;;;5054540;28;20036;-80
2021/05/14 01:21:46;;;;;;;2.97;1.35;;;8.40;99.90;;;;;;5063561;28;20032;-80
2021/05/14 01:24:14;;;;;;;3.70;1.65;;;8.40;99.90;;;;;;5073679;28;20458;-81
2021/05/14 01:26:40;;;;;;;3.45;1.70;;;8.40;99.90;;;;;;5067007;28;20405;-81
2021/05/14 01:29:09;;;;;;;3.05;1.95;;;8.50;99.90;;;;;;5060383;28;20033;-81
2021/05/14 01:31:35;;;;;;;3.88;2.08;;;8.50;99.90;;;;;;5061187;28;20033;-80
2021/05/14 01:34:04;;;;;;;3.30;2.05;;;8.50;99.90;;;;;;5060600;28;20056;-81
2021/05/14 01:36:30;;;;;;;3.33;2.25;;;8.60;99.90;;;;;;5055310;28;20041;-81
2021/05/14 01:38:56;;;;;;;4.22;2.30;;;8.60;99.90;;;;;;5072832;28;20028;-80
2021/05/14 01:41:22;;;;;;;2.42;1.85;;;8.70;99.90;;;;;;5055079;28;20378;-80
2021/05/14 01:43:49;;;;;;;2.47;1.60;;;8.60;99.90;;;;;;5071611;28;20040;-80
2021/05/14 01:46:15;;;;;;;5.40;2.03;;;8.70;99.90;;;;;;5055300;28;20045;-80
2021/05/14 01:48:41;;;;;;;3.63;2.17;;;8.70;99.90;;;;;;5066686;28;20040;-80
2021/05/14 01:51:18;;;;;;;2.55;1.92;;;8.70;99.90;;;;;;5053613;28;20037;-80
2021/05/14 01:53:45;;;;;;;3.53;2.20;;;8.80;99.90;;;;;;5053354;28;20040;-80
2021/05/14 01:56:11;;;;;;;3.47;2.28;;;8.80;99.90;;;;;;5053477;28;20374;-81
2021/05/14 01:58:37;;;;;;;3.17;2.22;;;8.80;99.90;;;;;;5052586;28;20036;-81
2021/05/14 02:01:04;;;;;;;3.63;2.67;;;8.80;99.90;;;;;;5056897;28;20032;-81
2021/05/14 02:03:31;;;;;;;6.97;3.15;;;8.70;99.90;;;;;;5058777;28;20036;-80
2021/05/14 02:05:57;;;;;;;4.35;2.97;;;8.70;99.90;;;;;;5060718;28;20029;-79
2021/05/14 02:08:23;;;;;;;3.75;2.53;;;8.70;99.90;;;;;;5062108;28;20063;-82
2021/05/14 02:10:50;;;;;;;3.22;2.63;;;8.70;99.90;;;;;;5053612;28;20451;-80
2021/05/14 02:13:17;;;;;;;5.38;3.20;;;8.70;99.90;;;;;;5066873;28;20056;-80
2021/05/14 02:15:43;;;;;;;4.00;2.90;;;8.70;99.90;;;;;;5068968;28;20039;-81
2021/05/14 02:18:09;;;;;;;5.10;3.00;;;8.70;99.90;;;;;;5055592;28;20033;-81
2021/05/14 02:20:35;;;;;;;7.28;3.05;;;8.70;99.90;;;;;;5052154;28;20036;-80
2021/05/14 02:23:02;;;;;;;5.22;3.70;;;8.70;99.90;;;;;;5067627;28;20033;-81
2021/05/14 02:25:28;;;;;;;4.13;2.67;;;8.70;99.90;;;;;;5061072;28;20056;-81
2021/05/14 02:27:54;;;;;;;5.22;3.83;;;8.70;99.90;;;;;;5056022;28;20047;-81
2021/05/14 02:30:21;;;;;;;4.75;3.70;;;8.80;99.90;;;;;;5051884;28;20037;-81
2021/05/14 02:32:47;;;;;;;5.88;3.63;;;8.80;99.90;;;;;;5052603;28;20053;-81
2021/05/14 02:35:14;;;;;;;6.03;3.92;;;8.80;99.90;;;;;;5052325;28;20488;-81
2021/05/14 02:37:40;;;;;;;7.95;3.25;;;8.80;99.90;;;;;;5052205;28;20048;-81
2021/05/14 02:40:07;;;;;;;4.43;3.05;;;8.80;99.90;;;;;;5051288;28;20029;-80
2021/05/14 02:42:34;;;;;;;5.45;2.97;;;8.90;99.90;;;;;;5051498;28;20033;-81
2021/05/14 02:45:00;;;;;;;3.65;2.78;;;8.90;99.90;;;;;;5059756;28;20036;-81
2021/05/14 02:47:27;;;;;;;3.83;2.90;;;8.90;99.90;;;;;;5051874;28;20477;-81
2021/05/14 02:49:53;;;;;;;3.42;2.17;;;8.90;99.90;;;;;;5052348;28;20043;-81
2021/05/14 02:52:20;;;;;;;4.28;2.63;;;8.90;99.90;;;;;;5051834;28;20044;-81
2021/05/14 02:54:46;;;;;;;3.97;2.60;;;9.00;99.90;;;;;;5058174;28;20028;-81
2021/05/14 02:57:12;;;;;;;5.03;2.22;;;9.00;99.90;;;;;;5066019;28;20381;-80
2021/05/14 02:59:39;;;;;;;6.18;2.40;;;9.10;99.90;;;;;;5067297;28;20239;-81
2021/05/14 03:02:07;;;;;;;4.47;2.53;;;9.10;99.90;;;;;;5062540;28;20033;-80
2021/05/14 03:04:33;;;;;;;4.20;2.30;;;9.10;99.90;;;;;;5075169;28;20033;-79
2021/05/14 03:07:01;;;;;;;5.18;2.42;;;9.10;99.90;;;;;;5076161;28;20035;-82
2021/05/14 03:09:27;;;;;;;4.50;2.22;;;9.10;99.90;;;;;;5075317;28;20389;-79
2021/05/14 03:11:54;;;;;;;5.57;2.30;;;9.10;99.90;;;;;;5075629;28;20081;-80
2021/05/14 03:14:20;;;;;;;2.72;2.00;;;9.10;99.90;;;;;;5060639;28;20029;-80
2021/05/14 03:16:46;;;;;;;3.25;2.22;;;9.10;99.90;;;;;;5050880;28;20041;-81
2021/05/14 03:19:13;;;;;;;3.47;1.85;;;9.10;99.90;;;;;;5051533;28;20470;-81
2021/05/14 03:21:39;;;;;;;3.10;2.20;;;9.10;99.90;;;;;;5051329;28;20048;-81
2021/05/14 03:24:05;;;;;;;4.63;2.28;;;9.10;99.90;;;;;;5052072;28;20033;-81
2021/05/14 03:26:31;;;;;;;3.35;2.25;;;9.10;99.90;;;;;;5052045;28;20583;-82
2021/05/14 03:28:58;;;;;;;3.42;1.95;;;9.20;99.90;;;;;;5052241;28;20032;-82
2021/05/14 03:31:24;;;;;;;4.53;2.40;;;9.10;99.90;;;;;;5051100;28;20040;-81
2021/05/14 03:33:50;;;;;;;4.25;2.80;;;9.20;99.90;;;;;;5052056;28;20049;-82
2021/05/14 03:36:19;;;;;;;3.72;2.97;;;9.20;99.90;;;;;;5051651;28;20044;-82
2021/05/14 03:38:46;;;;;;;3.90;2.75;;;9.20;99.90;;;;;;5059657;28;20381;-83
2021/05/14 03:41:33;;;;;;;4.32;2.80;;;9.20;99.90;;;;;;5060140;28;20068;-82
2021/05/14 03:44:00;;;;;;;4.40;2.88;;;9.20;99.90;;;;;;5051865;28;20063;-82
2021/05/14 03:46:28;;;;;;;5.20;3.13;;;9.20;99.90;;;;;;5051506;28;20033;-81
2021/05/14 03:48:54;;;;;;;4.63;2.88;;;9.20;99.90;;;;;;5051760;28;20071;-82
2021/05/14 03:51:21;;;;;;;6.43;2.95;;;9.30;99.90;;;;;;5051901;28;20045;-81
2021/05/14 03:53:47;;;;;;;5.13;2.67;;;9.30;99.90;;;;;;5051902;28;20045;-81
2021/05/14 03:56:13;;;;;;;7.05;3.80;;;9.30;99.90;;;;;;5051738;28;20036;-81
2021/05/14 03:58:39;;;;;;;4.25;2.90;;;9.30;99.90;;;;;;5063884;28;20040;-81
2021/05/14 04:01:06;;;;;;;4.70;3.08;;;9.30;99.90;;;;;;5055222;28;20029;-81
2021/05/14 04:03:32;;;;;;;3.00;2.45;;;9.30;99.90;;;;;;5066259;28;20040;-81
2021/05/14 04:05:59;;;;;;;5.85;2.72;;;9.30;99.90;;;;;;5060929;28;20033;-81
2021/05/14 04:08:26;;;;;;;3.72;2.58;;;9.30;99.90;;;;;;5055626;28;20485;-81
2021/05/14 04:16:18;;;;;;;4.20;2.75;;;9.40;99.90;;;;;;5068423;28;20394;-83
2021/05/14 04:18:44;;;;;;;3.97;2.88;;;9.50;99.90;;;;;;5066429;28;20476;-82
2021/05/14 04:21:11;;;;;;;3.95;2.38;;;9.50;99.90;;;;;;5054665;28;20461;-81
2021/05/14 04:23:37;;;;;;;4.32;2.85;;;9.60;99.90;;;;;;5073769;28;20037;-82
2021/05/14 04:26:03;;;;;;;4.80;2.65;;;9.70;99.90;;;;;;5055193;28;20052;-82
2021/05/14 04:28:30;;;;;;;4.53;2.30;;;9.70;99.90;;;;;;5062818;28;20021;-82
2021/05/14 04:30:56;;;;;;;5.05;2.25;;;9.80;99.90;;;;;;5054904;28;20036;-82
2021/05/14 04:33:22;;;;;;;4.85;2.58;;;9.90;99.90;;;;;;5058112;28;20048;-80
2021/05/14 04:35:49;;;;;;;3.55;2.15;;;9.90;99.90;;;;;;5064854;28;20044;-82
2021/05/14 04:38:15;;;;;;;3.42;2.00;;;9.90;99.90;;;;;;5054490;28;20033;-83
2021/05/14 04:40:42;;;;;;;3.05;2.25;;;10.00;99.90;;;;;;5053991;28;20033;-82
2021/05/14 04:43:08;;;;;;;3.78;2.00;;;10.20;99.90;;;;;;5054308;28;20041;-82
2021/05/14 04:45:36;;;;;;;3.45;2.03;;;10.30;99.90;;;;;;5062314;28;20037;-82
2021/05/14 04:48:02;;;;;;;3.85;1.83;;;10.50;99.90;;;;;;5069851;28;20056;-83
2021/05/14 04:50:28;;;;;;;4.30;2.03;;;11.10;99.90;;;;;;5058271;28;20024;-83
2021/05/14 04:53:04;;;;;;;4.10;1.90;;;12.20;99.90;;;;;;5073030;28;20035;-83
2021/05/14 04:55:32;;;;;;;1.65;1.13;;;12.90;98.90;;;;;;5055975;28;20041;-83
2021/05/14 04:57:58;;;;;;;3.05;1.38;;;13.50;93.60;;;;;;5056030;28;20367;-83
2021/05/14 05:00:25;;;;;;;2.63;1.35;;;14.40;91.80;;;;;;5058818;28;20033;-82
2021/05/14 05:02:52;;;;;;;3.38;1.30;;;15.60;85.50;;;;;;5055067;28;20044;-84
2021/05/14 05:05:19;;;;;;;3.67;1.30;;;15.60;77.70;;;;;;5054540;28;20037;-81
2021/05/14 05:07:45;;;;;;;2.13;1.10;;;15.20;80.30;;;;;;5052954;28;20036;-82
2021/05/14 05:10:12;;;;;;;2.13;1.10;;;15.70;78.80;;;;;;5060949;28;20478;-84
2021/05/14 05:12:39;;;;;;;2.47;1.00;;;16.30;73.30;;;;;;5067733;28;20463;-82
2021/05/14 05:15:05;;;;;;;2.95;1.40;;;16.40;73.90;;;;;;5052389;28;20037;-83
2021/05/14 05:17:32;;;;;;;1.70;1.02;;;17.70;69.50;;;;;;5060107;28;20397;-82
2021/05/14 05:19:58;;;;;;;1.55;0.90;;;18.00;66.20;;;;;;5067415;28;20433;-82
2021/05/14 05:22:25;;;;;;;1.52;1.10;;;17.90;65.40;;;;;;5052996;28;20028;-81
2021/05/14 05:24:51;;;;;;;1.42;0.90;;;17.40;65.90;;;;;;5053127;28;20036;-81
2021/05/14 05:27:17;;;;;;;3.03;1.20;;;17.30;66.70;;;;;;5052594;28;20041;-80
2021/05/14 05:29:43;;;;;;;6.78;1.55;;;17.80;64.20;;;;;;5053116;28;20033;-82
2021/05/14 05:32:09;;;;;;;2.65;1.30;;;18.50;62.40;;;;;;5052974;28;20048;-82
2021/05/14 05:34:37;;;;;;;1.65;1.10;;;19.40;59.40;;;;;;5053336;28;20048;-83
2021/05/14 05:37:03;;;;;;;2.30;0.93;;;18.60;60.20;;;;;;5062656;28;20033;-81
2021/05/14 05:39:30;;;;;;;1.50;0.75;;;19.00;59.80;;;;;;5071184;28;20021;-80
2021/05/14 05:41:56;;;;;;;1.20;0.88;;;18.90;58.60;;;;;;5076319;28;20017;-81
2021/05/14 05:44:22;;;;;;;1.30;0.73;;;18.20;59.70;;;;;;5072782;28;20037;-79
2021/05/14 05:46:49;;;;;;;1.10;0.60;;;16.90;62.80;;;;;;5072594;28;20019;-81
2021/05/14 05:49:15;;;;;;;2.15;0.70;;;16.60;63.40;;;;;;5053108;28;20040;-80
2021/05/14 05:51:41;;;;;;;1.63;0.50;;;16.40;65.20;;;;;;5052221;28;20389;-80
2021/05/14 05:54:08;;;;;;;1.05;0.47;;;16.40;64.90;;;;;;5052604;28;20449;-80
2021/05/14 05:56:34;;;;;;;2.03;0.63;;;15.00;67.10;;;;;;5052579;28;20045;-80
2021/05/14 05:59:01;;;;;;;1.65;0.50;;;14.50;69.70;;;;;;5052649;28;20457;-81
2021/05/14 06:01:28;;;;;;;1.42;0.60;;;13.80;72.00;;;;;;5051578;28;20406;-79
2021/05/14 06:03:55;;;;;;;4.28;0.85;;;13.10;75.10;;;;;;5063518;28;20051;-79
2021/05/14 06:06:21;;;;;;;0.52;0.35;;;13.10;77.50;;;;;;5056700;28;20405;-81
2021/05/14 06:08:47;;;;;;;0.70;0.50;;;12.80;78.50;;;;;;5060944;28;20029;-80
2021/05/14 06:11:14;;;;;;;3.63;0.90;;;12.80;79.60;;;;;;5063813;28;20036;-81
2021/05/14 06:13:40;;;;;;;3.75;0.90;;;12.80;79.90;;;;;;5053774;28;20080;-81
2021/05/14 06:16:06;;;;;;;2.70;0.70;;;12.50;81.70;;;;;;5058995;28;20074;-80
2021/05/14 06:18:37;;;;;;;2.67;0.80;;;12.60;82.80;;;;;;5052753;28;20040;-80
2021/05/14 06:21:04;;;;;;;2.53;0.95;;;12.60;84.20;;;;;;5064054;28;20037;-81
2021/05/14 06:23:31;;;;;;;5.63;5.05;;;12.50;84.00;;;;;;5051692;28;20049;-80
2021/05/14 06:25:57;;;;;;;2.78;2.55;;;12.40;85.80;;;;;;5053387;28;20466;-81
2021/05/14 06:28:23;;;;;;;3.67;1.23;;;12.30;85.90;;;;;;5069503;28;20040;-80
2021/05/14 06:30:50;;;;;;;4.47;1.00;;;12.00;88.40;;;;;;5059533;28;20033;-81
2021/05/14 06:33:17;;;;;;;2.20;1.05;;;11.90;90.00;;;;;;5056151;28;20131;-80
2021/05/14 06:35:45;;;;;;;1.70;0.75;;;11.90;90.50;;;;;;5051866;28;20473;-82
2021/05/14 06:38:12;;;;;;;3.53;1.58;;;11.90;91.40;;;;;;5052660;28;20040;-82
2021/05/14 06:40:38;;;;;;;1.58;1.10;;;11.90;92.10;;;;;;5051471;28;20466;-81
2021/05/14 06:43:04;;;;;;;1.83;1.10;;;11.80;92.30;;;;;;5056149;28;20032;-81
2021/05/14 06:45:30;;;;;;;2.85;1.40;;;11.90;93.30;;;;;;5054022;28;20024;-80
2021/05/14 06:48:07;;;;;;;3.83;2.00;;;12.00;92.60;;;;;;5052034;28;20056;-81
2021/05/14 06:50:34;;;;;;;5.55;1.70;;;11.90;93.10;;;;;;5059029;28;20021;-80
2021/05/14 06:53:02;;;;;;;1.90;1.15;;;11.90;93.00;;;;;;5057824;28;20052;-81
2021/05/14 06:55:28;;;;;;;2.17;1.23;;;11.90;94.10;;;;;;5063896;28;20509;-80
2021/05/14 06:57:54;;;;;;;3.33;1.73;;;11.80;94.40;;;;;;5052216;28;20032;-80
2021/05/14 07:00:21;;;;;;;3.22;1.67;;;11.80;94.40;;;;;;5064343;28;20040;-82
2021/05/14 07:02:48;;;;;;;2.63;1.20;;;11.90;94.70;;;;;;5062712;28;20412;-81
2021/05/14 07:05:16;;;;;;;1.77;1.17;;;11.90;94.40;;;;;;5058467;28;20025;-81
2021/05/14 07:07:43;;;;;;;2.00;0.90;;;11.90;94.80;;;;;;5063358;28;20270;-79
2021/05/14 07:10:11;;;;;;;2.78;1.33;;;12.20;94.60;;;;;;5055373;28;20021;-80
2021/05/14 07:12:38;;;;;;;4.00;1.23;;;12.20;93.90;;;;;;5051076;28;20041;-80
2021/05/14 07:15:07;;;;;;;3.25;1.63;;;12.10;94.60;;;;;;5052123;28;20044;-80
2021/05/14 07:17:33;;;;;;;4.18;1.88;;;12.30;94.30;;;;;;5051216;28;20052;-79
2021/05/14 07:20:00;;;;;;;4.75;1.50;;;12.70;92.70;;;;;;5051769;28;20040;-82
2021/05/14 07:22:27;;;;;;;2.95;1.50;;;12.70;91.80;;;;;;5051078;28;20029;-79
2021/05/14 07:24:53;;;;;;;2.83;1.45;;;12.70;92.50;;;;;;5052060;28;20398;-80
2021/05/14 07:27:19;;;;;;;3.17;1.17;;;13.50;90.90;;;;;;5051781;28;20386;-82
2021/05/14 07:29:45;;;;;;;2.75;1.20;;;14.40;86.20;;;;;;5051349;28;20040;-80
2021/05/14 07:32:12;;;;;;;3.25;1.58;;;15.00;82.20;;;;;;5067752;28;20033;-82
2021/05/14 07:34:38;;;;;;;3.03;1.10;;;14.90;79.90;;;;;;5055453;28;20049;-81
2021/05/14 07:37:06;;;;;;;2.53;1.25;;;14.60;80.80;;;;;;5066990;28;20029;-81
2021/05/14 07:39:35;;;;;;;3.25;1.17;;;14.70;81.60;;;;;;5054442;28;20049;-81
2021/05/14 07:42:03;;;;;;;1.88;1.00;;;15.60;79.20;;;;;;5055599;28;20040;-81
2021/05/14 07:44:29;;;;;;;2.28;1.02;;;16.00;76.00;;;;;;5067033;28;20044;-81
2021/05/14 07:46:55;;;;;;;1.63;0.90;;;16.00;74.00;;;;;;5055248;28;20041;-81
2021/05/14 07:49:22;;;;;;;2.85;1.20;;;16.20;73.60;;;;;;5055574;28;20041;-80
2021/05/14 07:51:49;;;;;;;2.97;1.05;;;15.60;73.90;;;;;;5055109;28;20036;-79
2021/05/14 07:54:15;;;;;;;1.95;1.00;;;15.00;76.40;;;;;;5054953;28;20037;-80
2021/05/14 07:56:41;;;;;;;1.77;0.80;;;14.90;75.60;;;;;;5054887;28;20033;-78
2021/05/14 07:59:08;;;;;;;1.50;0.55;;;15.70;74.20;;;;;;5054405;28;20033;-81
2021/05/14 08:01:35;;;;;;;1.58;0.63;;;16.20;70.80;;;;;;5054617;28;20378;-78
2021/05/14 08:04:01;;;;;;;1.27;0.60;;;16.30;72.00;;;;;;5066407;28;20052;-80
2021/05/14 08:06:27;;;;;;;3.13;0.60;;;16.70;69.90;;;;;;5083715;28;20047;-80
2021/05/14 08:08:55;;;;;;;0.88;0.47;;;16.90;70.50;;;;;;5070429;28;20033;-80
2021/05/14 08:11:21;;;;;;;0.95;0.55;;;17.70;68.30;;;;;;5071352;28;20390;-81
2021/05/14 08:13:47;;;;;;;1.98;0.50;;;18.30;64.30;;;;;;5055342;28;20045;-80
2021/05/14 08:16:14;;;;;;;1.75;0.90;;;18.20;64.80;;;;;;5068458;28;20032;-80
2021/05/14 08:18:40;;;;;;;1.77;0.55;;;19.50;62.00;;;;;;5060018;28;20033;-81
2021/05/14 08:21:06;;;;;;;2.03;0.60;;;20.90;57.70;;;;;;5062663;28;20059;-82
2021/05/14 08:23:35;;;;;;;1.60;0.70;;;21.30;55.00;;;;;;5071458;28;20040;-80
2021/05/14 08:26:05;;;;;;;0.93;0.50;;;20.10;55.10;;;;;;5054191;28;20413;-82
2021/05/14 08:28:31;;;;;;;0.68;0.30;;;20.10;55.40;;;;;;5058812;28;20037;-81
2021/05/14 08:30:57;;;;;;;1.40;0.55;;;19.20;57.60;;;;;;5059541;28;20037;-82
2021/05/14 08:33:24;;;;;;;0.75;0.40;;;18.60;59.40;;;;;;5054770;28;20497;-80
2021/05/14 08:35:51;;;;;;;3.15;0.77;;;19.30;58.10;;;;;;5054597;28;20032;-82
2021/05/14 08:38:17;;;;;;;2.08;0.60;;;19.10;57.20;;;;;;5054492;28;20056;-81
2021/05/14 08:40:43;;;;;;;2.03;0.60;;;19.40;57.70;;;;;;5057633;28;20029;-81
2021/05/14 08:43:11;;;;;;;2.47;0.70;;;20.70;57.00;;;;;;5060539;28;20056;-81
2021/05/14 08:45:38;;;;;;;2.10;0.90;;;22.20;52.10;;;;;;5059585;28;20032;-81
2021/05/14 08:48:11;;;;;;;3.00;0.80;;;20.50;54.20;;;;;;5064789;28;20025;-77
2021/05/14 08:50:39;;;;;;;1.05;0.68;;;19.60;55.60;;;;;;5058447;28;20051;-77
2021/05/14 08:53:07;;;;;;;4.20;1.88;;;19.00;57.40;;;;;;5053733;28;20513;-77
2021/05/14 08:55:33;;;;;;;3.70;1.05;;;18.00;58.40;;;;;;5054188;28;20041;-77
2021/05/14 08:58:00;;;;;;;3.95;0.80;;;17.10;60.00;;;;;;5053931;28;20036;-77
2021/05/14 09:00:26;;;;;;;5.93;0.82;;;16.70;61.50;;;;;;5053487;28;20033;-78
2021/05/14 09:02:54;;;;;;;3.90;0.73;;;16.50;61.70;;;;;;5067271;28;20044;-78
2021/05/14 09:05:27;;;;;;;2.10;0.60;;;16.80;61.70;;;;;;5053693;28;20483;-80
2021/05/14 09:07:58;;;;;;;2.03;0.50;;;17.90;60.00;;;;;;5070184;28;20044;-77
2021/05/14 09:10:26;;;;;;;1.95;0.63;;;18.50;57.80;;;;;;5065554;28;20032;-78
2021/05/14 09:12:53;;;;;;;2.67;0.40;;;18.40;57.60;;;;;;5071528;28;20425;-80
2021/05/14 09:15:31;;;;;;;1.15;0.32;;;19.20;56.30;;;;;;5055106;28;20048;-78
2021/05/14 09:18:03;;;;;;;2.70;0.70;;;19.50;54.10;;;;;;5053320;28;20029;-78
2021/05/14 09:20:35;;;;;;;1.65;0.40;;;17.90;56.70;;;;;;5053111;28;20040;-78
2021/05/14 09:23:35;;;;;;;1.33;0.65;;;18.00;58.60;;;;;;5053077;28;20383;-79
2021/05/14 09:26:06;;;;;;;;;;;20.10;54.30;;;;;;5053783;28;20029;-79
2021/05/14 09:28:40;;;;;;;2.65;0.50;;;20.20;52.60;;;;;;5052936;28;20022;-80
2021/05/14 09:31:15;;;;;;;4.57;0.85;;;21.40;50.90;;;;;;5063021;28;20032;-81
2021/05/14 09:33:48;;;;;;;2.58;0.90;;;20.90;50.70;;;;;;5052991;28;20053;-82
2021/05/14 09:36:21;;;;;;;2.83;0.88;;;19.10;53.80;;;;;;5053174;28;20394;-79
2021/05/14 09:38:55;;;;;;;1.80;1.00;;;21.50;53.00;;;;;;5052776;28;20386;-79
2021/05/14 09:41:38;;;;;;;1.92;0.82;;;22.20;50.60;;;;;;5053205;28;20037;-80
2021/05/14 09:44:07;;;;;;;3.00;1.02;;;22.30;47.50;;;;;;5067337;28;20040;-80
2021/05/14 09:46:41;;;;;;;2.13;0.80;;;20.80;48.90;;;;;;5052156;28;20509;-83
2021/05/14 09:49:17;;;;;;;3.33;1.38;;;21.00;49.50;;;;;;5063568;28;20063;-79
2021/05/14 09:51:57;;;;;;;1.58;0.75;;;19.30;51.10;;;;;;5053281;28;20041;-77
2021/05/14 09:54:25;;;;;;;1.90;0.50;;;17.80;53.10;;;;;;5068652;28;20393;-78
2021/05/14 09:59:53;;;;;;;2.00;0.50;;;17.50;56.60;;;;;;5058908;28;20040;-81
2021/05/14 10:02:31;;;;;;;1.98;0.60;;;17.80;54.60;;;;;;5054693;28;20466;-81
2021/05/14 10:04:59;;;;;;;1.85;0.50;;;17.50;54.70;;;;;;5053629;28;20045;-81
2021/05/14 10:07:27;;;;;;;4.55;0.60;;;16.90;56.00;;;;;;5062758;28;20028;-78
2021/05/14 10:10:00;;;;;;;1.33;0.60;;;16.90;57.40;;;;;;5059004;28;20040;-79
2021/05/14 10:12:27;;;;;;;3.13;0.60;;;17.20;57.20;;;;;;5053661;28;20405;-79
2021/05/14 10:14:57;;;;;;;1.42;0.52;;;17.50;56.50;;;;;;5072817;28;20040;-79
2021/05/14 10:17:24;;;;;;;3.10;0.70;;;17.50;56.90;;;;;;5062143;28;20036;-79
2021/05/14 10:19:52;;;;;;;2.38;0.50;;;17.20;57.10;;;;;;5052139;28;20059;-80
2021/05/14 10:22:19;;;;;;;2.00;0.40;;;17.10;56.50;;;;;;5052052;28;20044;-81
2021/05/14 10:24:46;;;;;;;0.95;0.50;;;17.20;57.40;;;;;;5060497;28;20052;-79
2021/05/14 10:27:18;;;;;;;1.70;0.40;;;17.50;55.80;;;;;;5053509;28;20041;-79
2021/05/14 10:29:47;;;;;;;1.33;0.40;;;18.40;57.00;;;;;;5051942;28;20039;-80
2021/05/14 10:32:14;;;;;;;2.75;0.47;;;19.20;54.80;;;;;;5051998;28;20113;-79
2021/05/14 10:34:40;;;;;;;2.70;0.40;;;18.90;54.80;;;;;;5051950;28;20389;-78
2021/05/14 10:37:07;;;;;;;3.53;0.50;;;19.30;52.90;;;;;;5069835;28;20385;-78
2021/05/14 10:39:39;;;;;;;2.88;0.60;;;18.70;52.30;;;;;;5052278;28;20073;-79
2021/05/14 10:42:11;;;;;;;1.17;0.30;;;18.70;54.20;;;;;;5070146;28;20049;-80
2021/05/14 10:44:46;;;;;;;1.95;0.50;;;18.40;53.90;;;;;;5061380;28;20048;-80
2021/05/14 10:47:22;;;;;;;2.47;0.60;;;18.40;53.60;;;;;;5052213;28;20044;-79
2021/05/14 10:49:53;;;;;;;0.75;0.30;;;18.50;53.80;;;;;;5051194;28;20025;-79
2021/05/14 10:52:19;;;;;;;0.88;0.40;;;18.30;53.70;;;;;;5066719;28;20137;-78
2021/05/14 10:54:46;;;;;;;0.63;0.30;;;18.20;53.20;;;;;;5066955;28;20053;-78
2021/05/14 10:57:13;;;;;;;1.75;0.30;;;18.20;54.60;;;;;;5051909;28;20378;-78
2021/05/14 10:59:41;;;;;;;1.35;0.35;;;18.30;54.40;;;;;;5057121;28;20028;-79
2021/05/14 11:02:30;;;;;;;0.70;0.30;;;17.90;54.00;;;;;;5061788;28;20505;-79
2021/05/14 11:05:00;;;;;;;3.80;0.43;;;17.70;55.90;;;;;;5052160;28;20045;-79
2021/05/14 11:07:29;;;;;;;2.15;0.50;;;18.00;55.60;;;;;;5055374;28;20481;-78
2021/05/14 11:10:14;;;;;;;1.13;0.45;;;18.30;54.70;;;;;;5069786;28;20035;-78
2021/05/14 11:12:45;;;;;;;0.82;0.30;;;18.40;54.70;;;;;;5055780;28;20155;-81
2021/05/14 11:15:14;;;;;;;2.83;0.30;;;18.20;54.00;;;;;;5066449;28;20045;-81
2021/05/14 11:17:40;;;;;;;0.82;0.20;;;18.30;53.80;;;;;;5069726;28;20036;-80
2021/05/14 11:20:22;;;;;;;6.88;0.57;;;18.10;55.00;;;;;;5059644;28;20402;-81
2021/05/14 11:22:48;;;;;;;1.83;0.28;;;17.80;55.00;;;;;;5071105;28;20059;-80
2021/05/14 11:25:21;;;;;;;1.25;0.30;;;17.90;55.10;;;;;;5074067;28;20056;-80
2021/05/14 11:27:52;;;;;;;2.05;0.20;;;18.00;56.00;;;;;;5073649;28;20032;-79
2021/05/14 11:30:19;;;;;;;0.70;0.20;;;18.30;53.20;;;;;;5058000;28;20025;-79
2021/05/14 11:32:46;;;;;;;0.70;0.20;;;18.30;52.10;;;;;;5069765;28;20494;-80
2021/05/14 11:35:18;;;;;;;16.63;2.13;;;18.30;52.20;;;;;;5055677;28;20367;-80
2021/05/14 11:37:51;;;;;;;1.75;0.20;;;18.40;52.10;;;;;;5071269;28;20052;-79
2021/05/14 11:40:23;;;;;;;1.38;0.40;;;18.30;51.40;;;;;;5057361;28;20033;-80
2021/05/14 11:42:55;;;;;;;0.20;0.15;;;18.30;52.50;;;;;;5055150;28;20044;-78
2021/05/14 11:45:26;;;;;;;1.23;0.20;;;18.40;51.20;;;;;;5055876;28;20199;-80
2021/05/14 11:47:58;;;;;;;0.28;0.10;;;18.40;51.60;;;;;;5061326;28;20376;-81
2021/05/14 11:50:35;;;;;;;0.63;0.20;;;19.10;51.70;;;;;;5061258;28;20037;-81
2021/05/14 11:53:04;;;;;;;0.65;0.20;;;19.00;51.40;;;;;;5062760;28;20053;-80
2021/05/14 11:55:31;;;;;;;0.63;0.20;;;19.40;52.30;;;;;;5065706;28;20049;-80
2021/05/14 11:57:59;;;;;;;0.60;0.20;;;19.30;52.10;;;;;;5067121;28;20381;-81
2021/05/14 12:00:32;;;;;;;0.57;0.30;;;19.20;52.20;;;;;;5071253;28;20045;-81
2021/05/14 12:03:06;;;;;;;0.40;0.20;;;19.50;51.50;;;;;;5055207;28;20035;-82
2021/05/14 12:05:34;;;;;;;0.32;0.20;;;19.60;52.30;;;;;;5060774;28;20032;-80
2021/05/14 12:08:13;;;;;;;0.80;0.20;;;20.00;48.20;;;;;;5061783;28;20041;-82
2021/05/14 12:10:49;;;;;;;0.63;0.20;;;19.10;51.00;;;;;;5055001;28;20033;-81
2021/05/14 12:13:19;;;;;;;0.57;0.17;;;19.60;51.80;;;;;;5067050;28;20040;-81
2021/05/14 12:15:46;;;;;;;0.85;0.40;;;20.30;50.70;;;;;;5072737;28;20044;-80
2021/05/14 12:18:18;;;;;;;1.75;0.10;;;20.20;50.20;;;;;;5070655;28;20287;-80
2021/05/14 12:20:44;;;;;;;0.60;0.20;;;19.60;47.70;;;;;;5055976;28;20389;-82
2021/05/14 12:23:13;;;;;;;0.55;0.20;;;19.50;49.50;;;;;;5073362;28;20056;-80
2021/05/14 12:25:48;;;;;;;0.60;0.10;;;19.60;50.20;;;;;;5068148;28;20033;-80
2021/05/14 12:28:47;;;;;;;0.30;0.17;;;19.80;49.80;;;;;;5054934;28;20029;-80
2021/05/14 12:31:28;;;;;;;0.65;0.20;;;19.60;50.10;;;;;;5031243;28;20041;-80
2021/05/14 12:33:58;;;;;;;1.10;0.20;;;19.80;48.10;;;;;;5054539;28;20394;-81
2021/05/14 12:36:31;;;;;;;0.80;0.30;;;19.60;49.40;;;;;;5054927;28;20049;-81
2021/05/14 12:39:13;;;;;;;0.98;0.25;;;20.10;49.10;;;;;;5053231;28;20041;-79
2021/05/14 12:41:49;;;;;;;1.00;0.30;;;19.80;47.90;;;;;;5059813;28;20036;-82
2021/05/14 12:44:18;;;;;;;1.92;0.30;;;19.40;49.40;;;;;;5071956;28;20043;-81
2021/05/14 12:47:01;;;;;;;1.75;0.30;;;19.30;50.10;;;;;;5065221;28;20032;-80
2021/05/14 12:49:48;;;;;;;2.55;0.30;;;19.00;50.20;;;;;;5054233;28;20482;-81
2021/05/14 12:52:23;;;;;;;1.80;0.30;;;18.30;51.00;;;;;;5052854;28;20033;-79
2021/05/14 12:55:16;;;;;;;1.58;0.40;;;18.10;52.30;;;;;;5053685;28;20371;-81
2021/05/14 12:57:52;;;;;;;0.93;0.30;;;18.60;51.30;;;;;;5050627;28;20056;-81
2021/05/14 13:00:20;;;;;;;0.98;0.20;;;19.00;50.80;;;;;;5071252;28;20043;-81
2021/05/14 13:03:10;;;;;;;1.60;0.35;;;19.30;51.40;;;;;;5067779;28;20029;-82
2021/05/14 13:05:41;;;;;;;3.83;0.87;;;19.50;50.00;;;;;;5057898;28;20036;-81